Dixie Valour — WDC2681 — position and weather

sailwx.info

Track history (hours):
 
Tides and Currents Weather Stations Pressure Air Temp Water Temp Dewpoint Dewpoint Depression Visibility Wind Speed Wind Dir Waves Ship Positions

Dixie Valour

Owner: Kirby Inland Marine LP, Houston, TX. More information available from US FCC via Universal Licensing System and Coast Guard Vessel Documentation Center.

Last reported at 2018-Jun-11 22:34 UTC. Time now 2018-Jun-25 11:33 UTC.
Position N 29°41' W 094°60'.
Warning: this ship's position is 13 days out of date.

Length 113 m; draft 3 m.

Type: . MMSI: 366996350.

Date/timePositionNaut miles runAvg speedWind from/ knotsBaromVisibWave heightAir tempDewpointWater temp
2018-Jun-11 22:34N 29°41' W 094°60'0 0.0
2018-Jun-11 13:57N 29°41' W 094°60'5 0.2
2018-Jun-10 12:41N 29°37' W 094°57'1 6.3
2018-Jun-10 12:29N 29°38' W 094°58'4 5.5
2018-Jun-10 11:51N 29°41' W 094°59'0 0.0
2018-Jun-09 10:23N 29°41' W 094°59'5 0.4
2018-Jun-08 23:04N 29°37' W 094°60'0 2.5
2018-Jun-08 23:00N 29°37' W 095°00'0 0.0
2018-Jun-08 21:37N 29°37' W 095°00'0 0.0
2018-Jun-08 21:25N 29°37' W 095°00'0 0.0
2018-Jun-08 20:52N 29°37' W 095°00'0 0.0
2018-Jun-08 20:28N 29°37' W 095°00'0 0.0
2018-Jun-08 19:58N 29°37' W 095°00'0 0.0
2018-Jun-08 19:25N 29°37' W 095°00'0 0.0
2018-Jun-08 18:58N 29°37' W 095°00'0 0.0
2018-Jun-08 18:28N 29°37' W 095°00'0 0.0
2018-Jun-08 17:58N 29°37' W 095°00'0 0.0
2018-Jun-08 17:28N 29°37' W 095°00'0 0.0
2018-Jun-08 16:49N 29°37' W 095°00'0 0.0
2018-Jun-08 16:25N 29°37' W 095°00'0 0.0
2018-Jun-08 14:37N 29°37' W 095°00'0 0.0
2018-Jun-08 14:07N 29°37' W 095°00'0 0.0
2018-Jun-08 13:55N 29°37' W 095°00'0 0.0
2018-Jun-08 13:17N 29°37' W 095°00'0 0.0
2018-Jun-08 13:00N 29°37' W 095°00'0 0.6
2018-Jun-08 12:30N 29°37' W 095°00'1 1.2
2018-Jun-08 11:59N 29°37' W 095°01'1 1.3
2018-Jun-08 11:28N 29°37' W 095°00'21 0.9
2018-Jun-07 12:40N 29°19' W 094°48'20 4.3
2018-Jun-07 07:58N 29°37' W 094°57'  
2018-Jun-05 01:59N 29°42' W 095°01'6 4.4
2018-Jun-05 00:43N 29°37' W 094°59'1 5.8
2018-Jun-05 00:28N 29°37' W 095°01'0 0.0
2018-Jun-04 23:33N 29°37' W 095°01'0 0.1
2018-Jun-04 23:27N 29°37' W 095°01'0 0.0
2018-Jun-04 22:57N 29°37' W 095°01'0 0.0
2018-Jun-04 22:30N 29°37' W 095°01'0 0.0
2018-Jun-04 21:48N 29°37' W 095°01'0 0.0
2018-Jun-04 16:38N 29°37' W 095°01'0 0.0
2018-Jun-04 13:17N 29°37' W 095°01'0 0.0
2018-Jun-04 12:59N 29°37' W 095°01'0 0.0
2018-Jun-04 11:22N 29°37' W 095°01'0 0.0
2018-Jun-04 11:00N 29°37' W 095°01'  
Track history (hours):
 
Tides and Currents Weather Stations Pressure Air Temp Water Temp Dewpoint Dewpoint Depression Visibility Wind Speed Wind Dir Waves Ship Positions

Dixie Valour

Owner: Kirby Inland Marine LP, Houston, TX. More information available from US FCC via Universal Licensing System and Coast Guard Vessel Documentation Center.

Last reported at 2018-Jun-11 22:34 UTC. Time now 2018-Jun-25 11:33 UTC.
Position N 29°41' W 094°60'.
Warning: this ship's position is 13 days out of date.

Length 113 m; draft 3 m.

Type: . MMSI: 366996350.

Date/timePositionNaut miles runAvg speedWind from/ knotsBaromVisibWave heightAir tempDewpointWater temp
2018-Jun-11 22:34N 29°41' W 094°60'0 0.0
2018-Jun-11 13:57N 29°41' W 094°60'5 0.2
2018-Jun-10 12:41N 29°37' W 094°57'1 6.3
2018-Jun-10 12:29N 29°38' W 094°58'4 5.5
2018-Jun-10 11:51N 29°41' W 094°59'0 0.0
2018-Jun-09 10:23N 29°41' W 094°59'5 0.4
2018-Jun-08 23:04N 29°37' W 094°60'0 2.5
2018-Jun-08 23:00N 29°37' W 095°00'0 0.0
2018-Jun-08 21:37N 29°37' W 095°00'0 0.0
2018-Jun-08 21:25N 29°37' W 095°00'0 0.0
2018-Jun-08 20:52N 29°37' W 095°00'0 0.0
2018-Jun-08 20:28N 29°37' W 095°00'0 0.0
2018-Jun-08 19:58N 29°37' W 095°00'0 0.0
2018-Jun-08 19:25N 29°37' W 095°00'0 0.0
2018-Jun-08 18:58N 29°37' W 095°00'0 0.0
2018-Jun-08 18:28N 29°37' W 095°00'0 0.0
2018-Jun-08 17:58N 29°37' W 095°00'0 0.0
2018-Jun-08 17:28N 29°37' W 095°00'0 0.0
2018-Jun-08 16:49N 29°37' W 095°00'0 0.0
2018-Jun-08 16:25N 29°37' W 095°00'0 0.0
2018-Jun-08 14:37N 29°37' W 095°00'0 0.0
2018-Jun-08 14:07N 29°37' W 095°00'0 0.0
2018-Jun-08 13:55N 29°37' W 095°00'0 0.0
2018-Jun-08 13:17N 29°37' W 095°00'0 0.0
2018-Jun-08 13:00N 29°37' W 095°00'0 0.6
2018-Jun-08 12:30N 29°37' W 095°00'1 1.2
2018-Jun-08 11:59N 29°37' W 095°01'1 1.3
2018-Jun-08 11:28N 29°37' W 095°00'21 0.9
2018-Jun-07 12:40N 29°19' W 094°48'20 4.3
2018-Jun-07 07:58N 29°37' W 094°57'  
2018-Jun-05 01:59N 29°42' W 095°01'6 4.4
2018-Jun-05 00:43N 29°37' W 094°59'1 5.8
2018-Jun-05 00:28N 29°37' W 095°01'0 0.0
2018-Jun-04 23:33N 29°37' W 095°01'0 0.1
2018-Jun-04 23:27N 29°37' W 095°01'0 0.0
2018-Jun-04 22:57N 29°37' W 095°01'0 0.0
2018-Jun-04 22:30N 29°37' W 095°01'0 0.0
2018-Jun-04 21:48N 29°37' W 095°01'0 0.0
2018-Jun-04 16:38N 29°37' W 095°01'0 0.0
2018-Jun-04 13:17N 29°37' W 095°01'0 0.0
2018-Jun-04 12:59N 29°37' W 095°01'0 0.0
2018-Jun-04 11:22N 29°37' W 095°01'0 0.0
2018-Jun-04 11:00N 29°37' W 095°01'  

Dump ship's entire track history